Time;durP1;ratioP1;P1;durP2;ratioP2;P2;SDS_P1;SDS_P2;PMS_P1;PMS_P2;Temp;Humidity;BMP_temperature;BMP_pressure;BME280_temperature;BME280_humidity;BME280_pressure;Samples;Min_cycle;Max_cycle;Signal;HPM_P1;HPM_P2
2023/12/13 00:02:11;;;;;;;7.63;4.20;;;10.70;99.90;;;;;;4855784;29;20037;-73
2023/12/13 00:04:36;;;;;;;9.68;3.83;;;10.60;99.90;;;;;;4874115;29;20162;-76
2023/12/13 00:07:02;;;;;;;7.88;4.40;;;10.70;99.90;;;;;;4861820;29;20033;-79
2023/12/13 00:09:28;;;;;;;7.55;3.50;;;10.70;99.90;;;;;;4878690;29;20033;-79
2023/12/13 00:11:54;;;;;;;8.02;3.45;;;10.60;99.90;;;;;;4879337;29;20516;-80
2023/12/13 00:14:20;;;;;;;7.88;3.50;;;10.70;99.90;;;;;;4862037;29;20422;-81
2023/12/13 00:16:46;;;;;;;6.43;3.42;;;10.70;99.90;;;;;;4879314;29;20044;-80
2023/12/13 00:19:12;;;;;;;9.77;4.28;;;10.60;99.90;;;;;;4862643;29;20033;-80
2023/12/13 00:21:38;;;;;;;9.32;3.35;;;10.60;99.90;;;;;;4878827;29;20496;-81
2023/12/13 00:24:04;;;;;;;8.02;3.70;;;10.60;99.90;;;;;;4878955;29;20041;-80
2023/12/13 00:26:30;;;;;;;7.45;3.50;;;10.60;99.90;;;;;;4879256;29;20036;-80
2023/12/13 00:28:55;;;;;;;6.32;3.35;;;10.60;99.90;;;;;;4862479;29;20033;-80
2023/12/13 00:31:21;;;;;;;7.32;3.53;;;10.60;99.90;;;;;;4862595;29;20451;-80
2023/12/13 00:33:47;;;;;;;8.15;3.38;;;10.70;99.90;;;;;;4861887;29;20508;-80
2023/12/13 00:36:13;;;;;;;9.32;3.45;;;10.70;99.90;;;;;;4846481;29;20387;-80
2023/12/13 00:38:38;;;;;;;7.22;3.10;;;10.70;99.90;;;;;;4861897;29;20037;-79
2023/12/13 00:41:04;;;;;;;6.97;3.70;;;10.60;99.90;;;;;;4861255;29;20044;-79
2023/12/13 00:43:30;;;;;;;5.75;2.75;;;10.60;99.90;;;;;;4879212;29;20037;-79
2023/12/13 00:45:56;;;;;;;8.93;2.95;;;10.60;99.90;;;;;;4878794;29;20085;-80
2023/12/13 00:48:21;;;;;;;6.35;3.05;;;10.60;99.90;;;;;;4879221;29;20041;-79
2023/12/13 00:50:48;;;;;;;7.20;2.63;;;10.60;99.90;;;;;;4879598;29;20124;-77
2023/12/13 00:53:13;;;;;;;4.32;1.90;;;10.60;99.90;;;;;;4879131;29;20120;-80
2023/12/13 00:55:39;;;;;;;8.05;2.80;;;10.60;99.90;;;;;;4879319;29;20064;-80
2023/12/13 00:58:05;;;;;;;7.72;1.90;;;10.50;99.90;;;;;;4879343;29;20033;-79
2023/12/13 01:00:30;;;;;;;7.18;2.28;;;10.40;99.90;;;;;;4878975;29;20037;-79
2023/12/13 01:02:56;;;;;;;6.65;2.40;;;10.50;99.90;;;;;;4849348;29;20037;-80
2023/12/13 01:05:22;;;;;;;7.97;2.65;;;10.40;99.90;;;;;;4882520;29;20466;-80
2023/12/13 01:07:47;;;;;;;6.50;2.33;;;10.40;99.90;;;;;;4850630;29;20094;-79
2023/12/13 01:10:13;;;;;;;4.32;2.10;;;10.40;99.90;;;;;;4882920;29;20037;-80
2023/12/13 01:12:42;;;;;;;6.22;2.50;;;10.40;99.90;;;;;;4882274;29;20029;-80
2023/12/13 01:15:11;;;;;;;5.90;2.00;;;10.40;99.90;;;;;;4865084;29;20028;-81
2023/12/13 01:17:37;;;;;;;6.13;2.10;;;10.40;99.90;;;;;;4882653;29;20037;-80
2023/12/13 01:20:06;;;;;;;8.15;2.60;;;10.40;99.90;;;;;;4865254;29;20379;-80
2023/12/13 01:22:32;;;;;;;4.90;2.15;;;10.40;99.90;;;;;;4865294;29;20065;-80
2023/12/13 01:24:58;;;;;;;9.60;2.30;;;10.40;99.90;;;;;;4882057;29;20060;-80
2023/12/13 01:27:23;;;;;;;11.13;2.75;;;10.40;99.90;;;;;;4865601;29;20033;-81
2023/12/13 01:29:49;;;;;;;5.95;2.25;;;10.50;99.90;;;;;;4865185;29;20123;-81
2023/12/13 01:32:14;;;;;;;8.50;2.50;;;10.40;99.90;;;;;;4882157;29;20037;-81
2023/12/13 01:34:40;;;;;;;6.93;2.20;;;10.40;99.90;;;;;;4865422;29;20037;-81
2023/12/13 01:37:06;;;;;;;9.52;2.40;;;10.50;99.90;;;;;;4865359;29;20513;-80
2023/12/13 01:39:31;;;;;;;9.57;2.75;;;10.50;99.90;;;;;;4865616;29;20035;-80
2023/12/13 01:41:57;;;;;;;5.47;2.17;;;10.50;99.90;;;;;;4864991;29;20032;-81
2023/12/13 01:44:23;;;;;;;6.25;2.85;;;10.50;99.90;;;;;;4881415;29;20043;-79
2023/12/13 01:46:50;;;;;;;7.05;1.90;;;10.50;99.90;;;;;;4881810;29;20044;-81
2023/12/13 01:49:16;;;;;;;6.97;2.40;;;10.50;99.90;;;;;;4881854;29;20085;-80
2023/12/13 01:51:43;;;;;;;8.10;2.17;;;10.50;99.90;;;;;;4881849;29;20045;-78
2023/12/13 01:54:11;;;;;;;6.28;2.03;;;10.50;99.90;;;;;;4849930;29;20483;-80
2023/12/13 01:56:40;;;;;;;8.00;2.35;;;10.50;99.90;;;;;;4882407;29;20033;-80
2023/12/13 01:59:07;;;;;;;7.28;2.10;;;10.50;99.90;;;;;;4865365;29;20085;-80
2023/12/13 02:01:33;;;;;;;5.80;1.95;;;10.50;99.90;;;;;;4881507;29;20044;-78
2023/12/13 02:03:58;;;;;;;9.50;1.80;;;10.50;99.90;;;;;;4882642;29;20465;-79
2023/12/13 02:06:24;;;;;;;3.97;1.55;;;10.50;99.90;;;;;;4881665;29;20558;-79
2023/12/13 02:08:50;;;;;;;5.03;1.60;;;10.50;99.90;;;;;;4883006;29;20060;-79
2023/12/13 02:11:15;;;;;;;8.82;1.35;;;10.50;99.90;;;;;;4883371;29;20393;-79
2023/12/13 02:13:41;;;;;;;4.25;1.40;;;10.50;99.90;;;;;;4883583;29;20060;-80
2023/12/13 02:16:08;;;;;;;6.85;1.67;;;10.50;99.90;;;;;;4883800;29;20025;-80
2023/12/13 02:18:33;;;;;;;5.68;1.80;;;10.50;99.90;;;;;;4866151;29;20391;-80
2023/12/13 02:20:59;;;;;;;5.88;1.40;;;10.50;99.90;;;;;;4881145;29;20061;-80
2023/12/13 02:23:24;;;;;;;4.22;1.55;;;10.50;99.90;;;;;;4881568;29;20093;-80
2023/12/13 02:26:05;;;;;;;5.90;1.10;;;10.50;99.90;;;;;;4881077;29;20037;-81
2023/12/13 02:28:31;;;;;;;7.30;1.40;;;10.40;99.90;;;;;;4881374;29;20029;-79
2023/12/13 02:30:58;;;;;;;5.30;1.40;;;10.50;99.90;;;;;;4881372;29;20120;-78
2023/12/13 02:33:25;;;;;;;6.88;1.70;;;10.50;99.90;;;;;;4880973;29;20029;-79
2023/12/13 02:35:52;;;;;;;6.22;1.20;;;10.50;99.90;;;;;;4881227;29;20057;-79
2023/12/13 02:38:18;;;;;;;3.95;1.42;;;10.50;99.90;;;;;;4881128;29;20395;-80
2023/12/13 02:40:44;;;;;;;3.60;0.90;;;10.50;99.90;;;;;;4848582;29;20044;-79
2023/12/13 02:43:09;;;;;;;5.30;1.48;;;10.50;99.90;;;;;;4863941;29;20401;-79
2023/12/13 02:45:45;;;;;;;3.97;0.85;;;10.50;99.90;;;;;;4880191;29;20096;-81
2023/12/13 02:48:11;;;;;;;5.80;1.00;;;10.50;99.90;;;;;;4880974;29;20104;-81
2023/12/13 02:50:38;;;;;;;4.15;1.25;;;10.50;99.90;;;;;;4880872;29;20079;-79
2023/12/13 02:53:05;;;;;;;6.25;1.40;;;10.50;99.90;;;;;;4880763;29;20041;-79
2023/12/13 02:55:30;;;;;;;6.47;0.90;;;10.50;99.90;;;;;;4880861;29;20032;-78
2023/12/13 02:57:56;;;;;;;2.30;0.80;;;10.60;99.90;;;;;;4881894;29;20030;-78
2023/12/13 03:00:22;;;;;;;4.07;1.17;;;10.60;99.90;;;;;;4880443;29;20037;-78
2023/12/13 03:02:47;;;;;;;4.05;1.45;;;10.60;99.90;;;;;;4863743;29;20045;-79
2023/12/13 03:05:13;;;;;;;5.70;1.13;;;10.60;99.90;;;;;;4880782;29;20037;-79
2023/12/13 03:07:39;;;;;;;5.88;1.02;;;10.70;99.90;;;;;;4863858;29;20029;-80
2023/12/13 03:10:05;;;;;;;4.72;0.65;;;10.70;99.90;;;;;;4880497;29;20064;-80
2023/12/13 03:12:31;;;;;;;3.97;1.05;;;10.70;99.90;;;;;;4881344;29;20112;-81
2023/12/13 03:14:57;;;;;;;4.32;0.90;;;10.60;99.90;;;;;;4866385;29;20068;-81
2023/12/13 03:17:23;;;;;;;3.50;0.90;;;10.60;99.90;;;;;;4867364;29;20033;-81
2023/12/13 03:19:48;;;;;;;4.40;0.88;;;10.60;99.90;;;;;;4849293;29;20394;-80
2023/12/13 03:22:14;;;;;;;4.00;1.10;;;10.60;99.90;;;;;;4863300;29;20041;-81
2023/12/13 03:24:39;;;;;;;4.43;1.27;;;10.60;99.90;;;;;;4863605;29;20120;-81
2023/12/13 03:27:05;;;;;;;7.47;1.10;;;10.60;99.90;;;;;;4879586;29;20339;-80
2023/12/13 03:29:31;;;;;;;4.75;0.93;;;10.60;99.90;;;;;;4863311;29;20037;-81
2023/12/13 03:31:57;;;;;;;4.97;1.52;;;10.60;99.90;;;;;;4879365;29;20048;-81
2023/12/13 03:34:22;;;;;;;5.00;0.90;;;10.60;99.90;;;;;;4879726;29;20039;-81
2023/12/13 03:36:48;;;;;;;3.85;1.05;;;10.60;99.90;;;;;;4879409;29;20144;-82
2023/12/13 03:39:13;;;;;;;4.32;1.33;;;10.60;99.90;;;;;;4879557;29;20514;-79
2023/12/13 03:41:39;;;;;;;5.30;1.00;;;10.60;99.90;;;;;;4862512;29;20088;-80
2023/12/13 03:44:05;;;;;;;3.45;1.30;;;10.60;99.90;;;;;;4879735;29;20491;-80
2023/12/13 03:46:30;;;;;;;3.83;1.30;;;10.60;99.90;;;;;;4862103;29;20056;-80
2023/12/13 03:48:56;;;;;;;6.43;1.60;;;10.60;99.90;;;;;;4862766;29;20386;-79
2023/12/13 03:51:21;;;;;;;5.63;1.85;;;10.60;99.90;;;;;;4879190;29;20234;-80
2023/12/13 03:53:47;;;;;;;5.68;1.67;;;10.60;99.90;;;;;;4847292;29;20384;-81
2023/12/13 03:56:13;;;;;;;4.60;1.30;;;10.60;99.90;;;;;;4862483;29;20037;-81
2023/12/13 03:58:39;;;;;;;6.97;1.80;;;10.60;99.90;;;;;;4862485;29;20041;-81
2023/12/13 04:01:07;;;;;;;5.78;1.90;;;10.60;99.90;;;;;;4862539;29;20099;-81
2023/12/13 04:03:34;;;;;;;2.78;1.60;;;10.60;99.90;;;;;;4879104;29;20037;-81
2023/12/13 04:05:59;;;;;;;4.43;1.77;;;10.60;99.90;;;;;;4878740;29;20025;-80
2023/12/13 04:08:25;;;;;;;8.32;2.13;;;10.60;99.90;;;;;;4847037;29;20169;-80
2023/12/13 04:10:51;;;;;;;7.28;2.47;;;10.60;99.90;;;;;;4862488;29;20060;-80
2023/12/13 04:13:16;;;;;;;5.90;2.67;;;10.60;99.90;;;;;;4878809;29;20394;-80
2023/12/13 04:15:42;;;;;;;4.68;3.05;;;10.60;99.90;;;;;;4878367;29;20478;-80
2023/12/13 04:18:08;;;;;;;8.77;3.55;;;10.60;99.90;;;;;;4862020;29;20115;-80
2023/12/13 04:20:34;;;;;;;5.30;3.83;;;10.50;99.90;;;;;;4878614;29;20033;-80
2023/12/13 04:22:59;;;;;;;6.63;3.22;;;10.50;99.90;;;;;;4862233;29;20037;-80
2023/12/13 04:25:25;;;;;;;6.32;3.22;;;10.50;99.90;;;;;;4862326;29;20033;-80
2023/12/13 04:27:50;;;;;;;10.60;4.35;;;10.50;99.90;;;;;;4879354;29;20079;-79
2023/12/13 04:30:16;;;;;;;8.70;3.72;;;10.50;99.90;;;;;;4879198;29;20037;-80
2023/12/13 04:32:42;;;;;;;7.18;3.67;;;10.50;99.90;;;;;;4879786;29;20086;-80
2023/12/13 04:35:08;;;;;;;11.70;3.85;;;10.60;99.90;;;;;;4863160;29;20355;-79
2023/12/13 04:37:35;;;;;;;9.65;4.20;;;10.60;99.90;;;;;;4864855;29;20124;-80
2023/12/13 04:40:01;;;;;;;7.25;3.85;;;10.50;99.90;;;;;;4883067;29;20033;-80
2023/12/13 04:42:27;;;;;;;6.35;3.60;;;10.50;99.90;;;;;;4866210;29;20434;-80
2023/12/13 04:44:53;;;;;;;9.35;3.80;;;10.60;99.90;;;;;;4881872;29;20033;-80
2023/12/13 04:47:19;;;;;;;6.95;3.95;;;10.60;99.90;;;;;;4882489;29;20084;-79
2023/12/13 04:49:45;;;;;;;8.48;4.20;;;10.60;99.90;;;;;;4865502;29;20454;-80
2023/12/13 04:52:11;;;;;;;10.30;4.78;;;10.60;99.90;;;;;;4881998;29;20035;-79
2023/12/13 04:54:39;;;;;;;9.60;4.00;;;10.60;99.90;;;;;;4865237;29;20135;-79
2023/12/13 04:57:04;;;;;;;6.10;4.00;;;10.60;99.90;;;;;;4881913;29;20049;-79
2023/12/13 04:59:30;;;;;;;8.30;3.75;;;10.60;99.90;;;;;;4882006;29;20033;-78
2023/12/13 05:01:56;;;;;;;6.90;3.60;;;10.60;99.90;;;;;;4882387;29;20044;-78
2023/12/13 05:04:22;;;;;;;7.75;3.92;;;10.60;99.90;;;;;;4881976;29;20476;-79
2023/12/13 05:06:48;;;;;;;17.05;3.92;;;10.70;99.90;;;;;;4896455;29;20490;-79
2023/12/13 05:09:13;;;;;;;8.65;3.70;;;10.70;99.90;;;;;;4900355;29;20040;-78
2023/12/13 05:11:39;;;;;;;10.35;4.15;;;10.70;99.90;;;;;;4900549;29;20041;-79
2023/12/13 05:14:05;;;;;;;7.72;3.90;;;10.80;99.90;;;;;;4900711;29;20055;-79
2023/12/13 05:16:30;;;;;;;6.18;3.67;;;10.70;99.90;;;;;;4900572;29;20040;-79
2023/12/13 05:18:56;;;;;;;8.35;3.75;;;10.70;99.90;;;;;;4883647;29;20389;-80
2023/12/13 05:21:22;;;;;;;11.65;4.18;;;10.80;99.90;;;;;;4867872;29;20040;-80
2023/12/13 05:23:48;;;;;;;7.95;4.07;;;10.80;99.90;;;;;;4883656;29;20037;-80
2023/12/13 05:26:13;;;;;;;9.40;3.97;;;10.70;99.90;;;;;;4900699;29;20489;-79
2023/12/13 05:28:39;;;;;;;9.18;3.80;;;10.80;99.90;;;;;;4900130;29;20103;-80
2023/12/13 05:31:05;;;;;;;6.22;4.07;;;10.80;99.90;;;;;;4883495;29;20464;-79
2023/12/13 05:33:30;;;;;;;6.15;3.60;;;10.80;99.90;;;;;;4883093;29;20025;-80
2023/12/13 05:35:56;;;;;;;13.55;4.35;;;10.80;99.90;;;;;;4883202;29;20056;-80
2023/12/13 05:38:22;;;;;;;10.98;4.25;;;10.90;99.90;;;;;;4883506;29;20044;-80
2023/12/13 05:40:47;;;;;;;9.18;4.20;;;10.80;99.90;;;;;;4899964;29;20041;-79
2023/12/13 05:43:13;;;;;;;9.93;3.90;;;10.80;99.90;;;;;;4899647;29;20033;-79
2023/12/13 05:45:38;;;;;;;10.57;4.43;;;10.90;99.90;;;;;;4882727;29;20029;-79
2023/12/13 05:48:05;;;;;;;10.68;4.55;;;10.90;99.90;;;;;;4899173;29;20060;-79
2023/12/13 05:50:31;;;;;;;10.88;4.35;;;10.90;99.90;;;;;;4899871;29;20055;-78
2023/12/13 05:52:57;;;;;;;11.48;4.80;;;10.90;99.90;;;;;;4899807;29;20029;-79
2023/12/13 05:55:22;;;;;;;11.35;4.60;;;10.90;99.90;;;;;;4900395;29;20039;-81
2023/12/13 05:57:48;;;;;;;9.25;4.28;;;10.90;99.90;;;;;;4899614;29;20036;-81
2023/12/13 06:00:14;;;;;;;11.23;4.63;;;10.90;99.90;;;;;;4900078;29;20069;-80
2023/12/13 06:02:40;;;;;;;11.43;4.53;;;10.90;99.90;;;;;;4899723;29;20079;-80
2023/12/13 06:05:07;;;;;;;14.95;5.25;;;10.90;99.90;;;;;;4882733;29;20489;-80
2023/12/13 06:07:32;;;;;;;11.45;4.82;;;10.80;99.90;;;;;;4899787;29;20088;-80
2023/12/13 06:09:58;;;;;;;13.80;4.50;;;10.80;99.90;;;;;;4899745;29;20033;-80
2023/12/13 06:12:24;;;;;;;12.32;4.88;;;10.80;99.90;;;;;;4899556;29;20047;-80
2023/12/13 06:14:50;;;;;;;9.02;4.28;;;10.80;99.90;;;;;;4882225;29;20473;-80
2023/12/13 06:17:15;;;;;;;11.60;4.22;;;10.80;99.90;;;;;;4899069;29;20033;-79
2023/12/13 06:19:41;;;;;;;9.80;4.90;;;10.80;99.90;;;;;;4899197;29;20025;-79
2023/12/13 06:22:07;;;;;;;12.00;4.97;;;10.80;99.90;;;;;;4866909;29;20036;-79
2023/12/13 06:24:33;;;;;;;11.68;5.03;;;10.80;99.90;;;;;;4899434;29;20059;-79
2023/12/13 06:26:59;;;;;;;13.85;4.68;;;10.80;99.90;;;;;;4899572;29;20036;-79
2023/12/13 06:29:25;;;;;;;12.00;4.35;;;10.90;99.90;;;;;;4899595;29;20045;-79
2023/12/13 06:31:51;;;;;;;11.20;4.57;;;10.80;99.90;;;;;;4898956;29;20037;-80
2023/12/13 06:34:17;;;;;;;8.05;4.50;;;10.90;99.90;;;;;;4898722;29;20458;-79
2023/12/13 06:36:43;;;;;;;12.63;5.10;;;10.90;99.90;;;;;;4898902;29;20049;-79
2023/12/13 06:39:11;;;;;;;13.02;4.90;;;10.90;99.90;;;;;;4881616;29;20032;-79
2023/12/13 06:41:40;;;;;;;10.25;4.97;;;10.90;99.90;;;;;;4866362;29;20033;-79
2023/12/13 06:44:07;;;;;;;15.02;5.40;;;10.90;99.90;;;;;;4898711;29;20045;-79
2023/12/13 06:46:33;;;;;;;12.07;5.13;;;10.90;99.90;;;;;;4866015;29;20036;-79
2023/12/13 06:48:58;;;;;;;12.77;5.10;;;10.90;99.90;;;;;;4899015;29;20119;-82
2023/12/13 06:51:24;;;;;;;10.02;4.53;;;10.90;99.90;;;;;;4898714;29;20124;-80
2023/12/13 06:53:50;;;;;;;12.45;4.90;;;10.90;99.90;;;;;;4898794;29;20044;-80
2023/12/13 06:56:17;;;;;;;14.07;5.18;;;10.90;99.90;;;;;;4898954;29;20047;-81
2023/12/13 06:58:43;;;;;;;10.63;4.75;;;10.90;99.90;;;;;;4882321;29;20111;-81
2023/12/13 07:01:08;;;;;;;14.93;6.32;;;10.90;99.90;;;;;;4898915;29;20069;-81
2023/12/13 07:03:34;;;;;;;10.65;4.93;;;10.90;99.90;;;;;;4899241;29;20052;-81
2023/12/13 07:06:00;;;;;;;9.95;5.30;;;10.90;99.90;;;;;;4881931;29;20029;-81
2023/12/13 07:08:26;;;;;;;13.77;5.57;;;10.90;99.90;;;;;;4882513;29;20038;-76
2023/12/13 07:10:52;;;;;;;10.10;4.18;;;11.00;99.90;;;;;;4898447;29;20349;-81
2023/12/13 07:13:17;;;;;;;12.52;5.03;;;11.00;99.90;;;;;;4898464;29;20527;-77
2023/12/13 07:15:43;;;;;;;15.20;4.78;;;11.00;99.90;;;;;;4898063;29;20493;-75
2023/12/13 07:18:09;;;;;;;11.73;5.03;;;11.10;99.90;;;;;;4859104;29;20443;-77
2023/12/13 07:20:35;;;;;;;15.35;5.43;;;11.10;99.90;;;;;;4877817;29;20036;-81
2023/12/13 07:23:01;;;;;;;10.65;4.80;;;11.10;99.90;;;;;;4878195;29;20037;-80
2023/12/13 07:25:27;;;;;;;9.35;4.57;;;11.10;99.90;;;;;;4878308;29;20036;-76
2023/12/13 07:27:52;;;;;;;14.75;5.18;;;11.20;99.90;;;;;;4877640;29;20517;-74
2023/12/13 07:30:18;;;;;;;13.75;5.78;;;11.20;99.90;;;;;;4877197;29;20052;-75
2023/12/13 07:32:44;;;;;;;15.70;5.75;;;11.20;99.90;;;;;;4877784;29;20032;-76
2023/12/13 07:35:10;;;;;;;14.07;5.18;;;11.20;99.90;;;;;;4877536;29;20033;-75
2023/12/13 07:37:36;;;;;;;12.07;5.43;;;11.20;99.90;;;;;;4860896;29;20115;-75
2023/12/13 07:40:06;;;;;;;10.70;5.10;;;11.30;99.90;;;;;;4874953;29;20104;-76
2023/12/13 07:42:32;;;;;;;16.92;5.35;;;11.30;99.90;;;;;;4837503;29;20049;-74
2023/12/13 07:44:58;;;;;;;14.10;5.65;;;11.30;99.90;;;;;;4877440;29;20474;-76
2023/12/13 07:47:24;;;;;;;12.57;4.75;;;11.40;99.90;;;;;;4860293;29;20047;-76
2023/12/13 07:49:50;;;;;;;10.43;3.78;;;11.40;99.90;;;;;;4860236;29;20037;-75
2023/12/13 07:52:16;;;;;;;13.93;4.28;;;11.40;99.90;;;;;;4876989;29;20442;-75
2023/12/13 07:54:44;;;;;;;15.70;5.50;;;11.40;99.90;;;;;;4877050;29;20037;-78
2023/12/13 07:57:10;;;;;;;14.02;4.43;;;11.50;99.90;;;;;;4876573;29;20060;-79
2023/12/13 07:59:36;;;;;;;17.75;5.38;;;11.40;99.90;;;;;;4861544;29;20057;-80
2023/12/13 08:02:01;;;;;;;16.08;4.85;;;11.40;99.90;;;;;;4860758;29;20045;-80
2023/12/13 08:04:27;;;;;;;14.13;4.18;;;11.40;99.90;;;;;;4878274;29;20034;-77
2023/12/13 08:06:53;;;;;;;12.30;4.18;;;11.40;99.90;;;;;;4877879;29;20037;-76
2023/12/13 08:09:19;;;;;;;15.27;4.32;;;11.40;99.90;;;;;;4862243;29;20118;-76
2023/12/13 08:11:46;;;;;;;13.55;4.47;;;11.40;99.90;;;;;;4878093;29;20044;-76
2023/12/13 08:14:14;;;;;;;12.20;3.88;;;11.40;99.90;;;;;;4882325;29;20029;-74
2023/12/13 08:16:40;;;;;;;12.15;3.85;;;11.40;99.90;;;;;;4867845;29;20045;-85
2023/12/13 08:19:06;;;;;;;14.43;4.00;;;11.40;99.90;;;;;;4866896;29;20034;-82
2023/12/13 08:21:31;;;;;;;13.98;4.20;;;11.40;99.90;;;;;;4846991;29;20132;-81
2023/12/13 08:23:57;;;;;;;9.45;4.20;;;11.40;99.90;;;;;;4864028;29;20049;-80
2023/12/13 08:26:25;;;;;;;10.40;4.10;;;11.40;99.90;;;;;;4847224;29;20026;-81
2023/12/13 08:28:51;;;;;;;13.82;4.03;;;11.40;99.90;;;;;;4863746;29;20112;-79
2023/12/13 08:31:17;;;;;;;14.63;4.13;;;11.40;99.90;;;;;;4863881;29;20479;-81
2023/12/13 08:33:43;;;;;;;9.85;4.25;;;11.40;99.90;;;;;;4879059;29;20088;-81
2023/12/13 08:36:12;;;;;;;17.48;4.35;;;11.40;99.90;;;;;;4877710;29;20080;-81
2023/12/13 08:38:42;;;;;;;16.50;4.53;;;11.30;99.90;;;;;;4864366;29;20048;-80
2023/12/13 08:41:08;;;;;;;12.52;4.65;;;11.30;99.90;;;;;;4881434;29;20021;-81
2023/12/13 08:43:35;;;;;;;14.90;5.78;;;11.30;99.90;;;;;;4882599;29;20065;-82
2023/12/13 08:46:01;;;;;;;17.15;6.22;;;11.30;99.90;;;;;;4882010;29;20043;-81
2023/12/13 08:48:27;;;;;;;13.77;5.30;;;11.30;99.90;;;;;;4882785;29;20124;-82
2023/12/13 08:50:53;;;;;;;18.60;5.75;;;11.30;99.90;;;;;;4882575;29;20112;-82
2023/12/13 08:53:18;;;;;;;14.90;4.35;;;11.20;99.90;;;;;;4882099;29;20048;-82
2023/12/13 08:55:44;;;;;;;10.25;4.38;;;11.20;99.90;;;;;;4865956;29;20040;-82
2023/12/13 08:58:11;;;;;;;17.23;4.60;;;11.20;99.90;;;;;;4881574;29;20056;-81
2023/12/13 09:00:37;;;;;;;12.23;3.85;;;11.20;99.90;;;;;;4881231;29;20189;-81
2023/12/13 09:03:03;;;;;;;14.68;3.97;;;11.20;99.90;;;;;;4882142;29;20045;-82
2023/12/13 09:05:29;;;;;;;14.45;4.13;;;11.20;99.90;;;;;;4881610;29;20513;-82
2023/12/13 09:07:55;;;;;;;18.92;4.65;;;11.20;99.90;;;;;;4865200;29;20037;-82
2023/12/13 09:10:22;;;;;;;11.48;4.18;;;11.20;99.90;;;;;;4864590;29;20037;-82
2023/12/13 09:12:48;;;;;;;14.15;4.65;;;11.20;99.90;;;;;;4881909;29;20041;-82
2023/12/13 09:15:18;;;;;;;12.95;4.60;;;11.20;99.90;;;;;;4880910;29;20041;-81
2023/12/13 09:17:47;;;;;;;14.45;4.65;;;11.20;99.90;;;;;;4864903;29;20025;-79
2023/12/13 09:20:15;;;;;;;16.95;4.53;;;11.10;99.90;;;;;;4886198;29;20041;-81
2023/12/13 09:22:42;;;;;;;13.18;4.45;;;11.10;99.90;;;;;;4873328;29;20045;-81
2023/12/13 09:25:09;;;;;;;16.23;4.63;;;11.20;99.90;;;;;;4859999;29;20061;-81
2023/12/13 09:27:35;;;;;;;14.70;3.95;;;11.20;99.90;;;;;;4873457;29;20081;-82
2023/12/13 09:30:02;;;;;;;11.95;4.32;;;11.20;99.90;;;;;;4855464;29;20085;-80
2023/12/13 09:32:28;;;;;;;14.23;4.30;;;11.20;99.90;;;;;;4881940;29;20040;-79
2023/12/13 09:34:55;;;;;;;12.00;4.32;;;11.20;99.90;;;;;;4865559;29;20037;-76
2023/12/13 09:37:21;;;;;;;14.77;4.35;;;11.30;99.90;;;;;;4850118;29;20100;-78
2023/12/13 09:39:46;;;;;;;15.68;5.18;;;11.30;99.90;;;;;;4882644;29;20053;-79
2023/12/13 09:42:13;;;;;;;17.02;4.70;;;11.30;99.90;;;;;;4882132;29;20037;-79
2023/12/13 09:44:40;;;;;;;12.50;4.68;;;11.30;99.90;;;;;;4881091;29;20037;-79
2023/12/13 09:47:07;;;;;;;14.68;5.03;;;11.40;99.90;;;;;;4881109;29;20025;-78
2023/12/13 09:49:36;;;;;;;11.10;3.65;;;11.40;99.90;;;;;;4878517;29;20033;-76
2023/12/13 09:52:03;;;;;;;14.68;4.88;;;11.40;99.90;;;;;;4879817;29;20045;-78
2023/12/13 09:54:30;;;;;;;12.15;4.07;;;11.40;99.90;;;;;;4874210;29;20616;-77
2023/12/13 09:56:56;;;;;;;12.27;5.13;;;11.40;99.90;;;;;;4879230;29;20029;-81
2023/12/13 09:59:24;;;;;;;13.00;5.35;;;11.40;99.90;;;;;;4879867;29;20486;-81
2023/12/13 10:01:50;;;;;;;13.27;5.07;;;11.40;99.90;;;;;;4863882;29;20120;-78
2023/12/13 10:04:16;;;;;;;9.85;4.07;;;11.40;99.90;;;;;;4864259;29;20132;-76
2023/12/13 10:06:42;;;;;;;14.82;5.10;;;11.40;99.90;;;;;;4864035;29;20033;-79
2023/12/13 10:09:08;;;;;;;12.60;4.93;;;11.40;99.90;;;;;;4863174;29;20058;-78
2023/12/13 10:11:34;;;;;;;11.50;4.50;;;11.40;99.90;;;;;;4863148;29;20097;-78
2023/12/13 10:14:00;;;;;;;11.30;4.03;;;11.50;99.90;;;;;;4848350;29;20565;-77
2023/12/13 10:16:28;;;;;;;11.57;4.63;;;11.50;99.90;;;;;;4879918;29;20067;-77
2023/12/13 10:18:55;;;;;;;12.63;4.38;;;11.50;99.90;;;;;;4878721;29;20041;-78
2023/12/13 10:21:20;;;;;;;10.48;3.97;;;11.50;99.90;;;;;;4860284;29;20474;-78
2023/12/13 10:23:46;;;;;;;9.73;4.60;;;11.50;99.90;;;;;;4862345;29;20048;-78
2023/12/13 10:26:12;;;;;;;11.93;4.10;;;11.60;99.90;;;;;;4880185;29;20037;-77
2023/12/13 10:28:38;;;;;;;15.55;4.32;;;11.60;99.90;;;;;;4880398;29;20371;-77
2023/12/13 10:31:04;;;;;;;10.32;4.45;;;11.70;99.90;;;;;;4879812;29;20037;-77
2023/12/13 10:33:30;;;;;;;11.70;3.67;;;11.70;99.90;;;;;;4879631;29;20029;-78
2023/12/13 10:35:58;;;;;;;9.32;4.20;;;11.70;99.90;;;;;;4861337;29;20061;-78
2023/12/13 10:38:25;;;;;;;12.55;5.18;;;11.70;99.90;;;;;;4874571;29;20033;-78
2023/12/13 10:40:52;;;;;;;11.27;4.30;;;11.70;99.90;;;;;;4873251;29;20063;-78
2023/12/13 10:43:19;;;;;;;9.82;4.15;;;11.70;99.90;;;;;;4876316;29;20346;-79
2023/12/13 10:46:16;;;;;;;10.10;4.38;;;11.70;99.90;;;;;;4879400;29;20033;-78
2023/12/13 10:48:42;;;;;;;7.03;3.05;;;11.80;99.90;;;;;;4855755;29;20358;-78
2023/12/13 10:51:08;;;;;;;11.57;4.05;;;11.80;99.90;;;;;;4879247;29;20041;-74
2023/12/13 10:53:34;;;;;;;9.65;4.45;;;11.80;99.90;;;;;;4861826;29;20068;-73
2023/12/13 10:56:01;;;;;;;8.70;3.53;;;11.80;99.90;;;;;;4878492;29;20041;-74
2023/12/13 10:58:28;;;;;;;8.18;3.60;;;11.70;99.90;;;;;;4862880;29;20037;-75
2023/12/13 11:00:55;;;;;;;5.47;2.83;;;11.70;99.90;;;;;;4877026;29;20033;-74
2023/12/13 11:04:01;;;;;;;7.45;3.63;;;11.70;99.90;;;;;;4878883;29;20052;-74
2023/12/13 11:06:27;;;;;;;9.20;3.25;;;11.80;99.90;;;;;;4879814;29;20092;-74
2023/12/13 11:08:53;;;;;;;10.60;2.90;;;11.80;99.90;;;;;;4844991;29;20522;-74
2023/12/13 11:11:18;;;;;;;7.15;2.80;;;11.80;99.90;;;;;;4862312;29;20108;-73
2023/12/13 11:13:54;;;;;;;5.53;2.40;;;11.80;99.90;;;;;;4879268;29;20068;-74
2023/12/13 11:16:23;;;;;;;6.10;1.92;;;11.80;99.90;;;;;;4861879;29;20041;-79
2023/12/13 11:18:51;;;;;;;3.70;2.00;;;11.70;99.90;;;;;;4879092;29;20037;-75
2023/12/13 11:21:27;;;;;;;4.85;1.50;;;11.70;99.90;;;;;;4878099;29;20145;-73
2023/12/13 11:24:00;;;;;;;12.25;8.48;;;11.80;99.90;;;;;;4879143;29;20054;-73
2023/12/13 11:26:32;;;;;;;9.40;4.75;;;11.80;99.90;;;;;;4878812;29;20037;-73
2023/12/13 11:28:59;;;;;;;6.95;2.90;;;11.80;99.90;;;;;;4861369;29;20076;-73
2023/12/13 11:31:26;;;;;;;3.20;1.73;;;11.80;99.90;;;;;;4877510;29;20397;-76
2023/12/13 11:33:56;;;;;;;7.07;1.95;;;11.70;99.90;;;;;;4877417;29;20041;-75
2023/12/13 11:36:23;;;;;;;7.22;1.73;;;11.80;99.90;;;;;;4862205;29;20481;-75
2023/12/13 11:38:55;;;;;;;6.07;1.77;;;11.80;99.90;;;;;;4878833;29;20478;-75
2023/12/13 11:41:21;;;;;;;6.63;1.88;;;11.80;99.90;;;;;;4846056;29;20440;-75
2023/12/13 11:43:47;;;;;;;4.68;1.73;;;11.70;99.90;;;;;;4878676;29;20132;-74
2023/12/13 11:46:14;;;;;;;4.40;1.80;;;11.80;99.90;;;;;;4878398;29;20116;-74
2023/12/13 11:48:43;;;;;;;5.85;2.00;;;11.70;99.90;;;;;;4879043;29;20103;-74
2023/12/13 11:51:09;;;;;;;7.05;2.13;;;11.70;99.90;;;;;;4862820;29;20065;-73
2023/12/13 11:53:34;;;;;;;4.10;1.55;;;11.70;99.90;;;;;;4879008;29;20513;-73
2023/12/13 11:56:00;;;;;;;6.05;2.22;;;11.70;99.90;;;;;;4878330;29;20443;-73
2023/12/13 11:58:31;;;;;;;5.00;1.95;;;11.70;99.90;;;;;;4860818;29;20033;-75
2023/12/13 12:00:58;;;;;;;6.88;1.40;;;11.70;99.90;;;;;;4877966;29;20040;-73
2023/12/13 12:03:25;;;;;;;5.63;1.52;;;11.70;99.90;;;;;;4879122;29;20062;-73
2023/12/13 12:05:50;;;;;;;3.25;1.52;;;11.70;99.90;;;;;;4862884;29;20033;-72
2023/12/13 12:08:22;;;;;;;5.90;1.65;;;11.70;99.90;;;;;;4862858;29;20033;-74
2023/12/13 12:10:47;;;;;;;4.05;1.73;;;11.80;99.90;;;;;;4880889;29;20041;-74
2023/12/13 12:13:13;;;;;;;4.63;1.70;;;11.80;99.90;;;;;;4882299;29;20538;-73
2023/12/13 12:15:41;;;;;;;5.57;2.50;;;11.80;99.90;;;;;;4879870;29;20033;-74
2023/12/13 12:18:06;;;;;;;5.35;2.55;;;11.80;99.90;;;;;;4861806;29;20057;-73
2023/12/13 12:20:34;;;;;;;8.50;2.83;;;11.70;99.90;;;;;;4835635;29;20521;-74
2023/12/13 12:23:02;;;;;;;3.35;1.98;;;11.80;99.90;;;;;;4874417;29;20072;-74
2023/12/13 12:25:31;;;;;;;8.30;2.80;;;11.80;99.90;;;;;;4861204;29;20462;-73
2023/12/13 12:27:57;;;;;;;7.03;2.83;;;11.70;99.90;;;;;;4859357;29;20041;-73
2023/12/13 12:30:22;;;;;;;6.55;3.00;;;11.60;99.90;;;;;;4858060;29;20505;-74
2023/12/13 12:32:48;;;;;;;5.28;3.08;;;11.40;99.90;;;;;;4876235;29;20406;-73
2023/12/13 12:35:14;;;;;;;4.22;2.53;;;11.30;99.90;;;;;;4875249;29;20037;-74
2023/12/13 12:37:40;;;;;;;7.50;3.08;;;11.30;99.90;;;;;;4875016;29;20358;-73
2023/12/13 12:40:08;;;;;;;5.50;2.33;;;11.30;99.90;;;;;;4859723;29;20116;-74